createdAt,value
2019-05-30T00:00:56.604Z,11.33
2019-05-30T00:03:25.022Z,11.30
2019-05-30T00:05:54.283Z,11.26
2019-05-30T00:08:22.835Z,11.23
2019-05-30T00:10:51.253Z,11.27
2019-05-30T00:13:19.660Z,11.31
2019-05-30T00:15:48.136Z,11.35
2019-05-30T00:18:16.727Z,11.32
2019-05-30T00:20:45.136Z,11.30
2019-05-30T00:23:16.267Z,11.31
2019-05-30T00:25:44.682Z,11.32
2019-05-30T00:28:13.114Z,11.29
2019-05-30T00:30:41.511Z,11.30
2019-05-30T00:33:09.927Z,11.30
2019-05-30T00:35:38.398Z,11.29
2019-05-30T00:38:06.791Z,11.29
2019-05-30T00:40:35.405Z,11.31
2019-05-30T00:43:04.301Z,11.29
2019-05-30T00:45:32.818Z,11.29
2019-05-30T00:48:02.255Z,11.29
2019-05-30T00:50:30.887Z,11.29
2019-05-30T00:52:59.288Z,11.28
2019-05-30T00:55:27.740Z,11.29
2019-05-30T00:57:56.674Z,11.29
2019-05-30T01:00:42.129Z,11.30
2019-05-30T01:02:59.345Z,11.32
2019-05-30T01:05:27.274Z,11.34
2019-05-30T01:07:56.712Z,11.34
2019-05-30T01:10:25.164Z,11.35
2019-05-30T01:12:53.630Z,11.39
2019-05-30T01:15:22.161Z,11.40
2019-05-30T01:17:50.588Z,11.36
2019-05-30T01:20:19.624Z,11.38
2019-05-30T01:22:48.099Z,11.40
2019-05-30T01:25:16.778Z,11.43
2019-05-30T01:27:45.175Z,11.41
2019-05-30T01:30:15.179Z,11.42
2019-05-30T01:32:43.618Z,11.43
2019-05-30T01:35:12.458Z,11.41
2019-05-30T01:37:40.860Z,11.38
2019-05-30T01:40:10.028Z,11.36
2019-05-30T01:42:38.561Z,11.35
2019-05-30T01:45:08.602Z,11.35
2019-05-30T01:47:37.234Z,11.36
2019-05-30T01:50:09.994Z,11.36
2019-05-30T01:52:38.471Z,11.39
2019-05-30T01:55:09.093Z,11.38
2019-05-30T01:57:38.296Z,11.37
2019-05-30T02:00:19.871Z,11.36
2019-05-30T02:02:39.492Z,11.36
2019-05-30T02:05:10.125Z,11.37
2019-05-30T02:07:38.517Z,11.41
2019-05-30T02:10:07.798Z,11.47
2019-05-30T02:12:36.210Z,11.52
2019-05-30T02:15:07.799Z,11.55
2019-05-30T02:17:36.261Z,11.58
2019-05-30T02:20:06.188Z,11.61
2019-05-30T02:22:34.593Z,11.63
2019-05-30T02:25:03.946Z,11.63
2019-05-30T02:27:32.423Z,11.63
2019-05-30T02:30:03.269Z,11.65
2019-05-30T02:32:30.976Z,11.64
2019-05-30T02:35:00.771Z,11.65
2019-05-30T02:37:29.355Z,11.64
2019-05-30T02:40:00.912Z,11.62
2019-05-30T02:42:27.932Z,11.60
2019-05-30T02:44:56.319Z,11.61
2019-05-30T02:47:24.755Z,11.63
2019-05-30T02:49:53.147Z,11.64
2019-05-30T02:52:23.064Z,11.63
2019-05-30T02:54:51.784Z,11.64
2019-05-30T02:57:20.254Z,11.64
2019-05-30T02:59:48.654Z,11.65
2019-05-30T03:02:17.891Z,11.67
2019-05-30T03:04:46.497Z,11.68
2019-05-30T03:07:16.977Z,11.68
2019-05-30T03:09:45.585Z,11.67
2019-05-30T03:12:14.152Z,11.69
2019-05-30T03:14:42.802Z,11.66
2019-05-30T03:17:12.528Z,11.65
2019-05-30T03:19:41.619Z,11.62
2019-05-30T03:22:12.245Z,11.62
2019-05-30T03:24:40.254Z,11.61
2019-05-30T03:27:09.924Z,11.61
2019-05-30T03:29:39.103Z,11.63
2019-05-30T03:32:48.899Z,11.64
2019-05-30T03:34:39.525Z,11.62
2019-05-30T03:37:16.705Z,11.61
2019-05-30T03:39:38.176Z,11.59
2019-05-30T03:42:07.539Z,11.58
2019-05-30T03:44:36.845Z,11.61
2019-05-30T03:47:08.723Z,11.63
2019-05-30T03:49:40.439Z,11.66
2019-05-30T03:52:14.512Z,11.67
2019-05-30T03:54:42.931Z,11.70
2019-05-30T03:57:39.429Z,11.68
2019-05-30T04:00:50.927Z,11.68
2019-05-30T04:03:39.427Z,11.68
2019-05-30T04:06:12.410Z,11.61
2019-05-30T04:08:43.701Z,11.54
2019-05-30T04:11:16.867Z,11.55
2019-05-30T04:13:48.357Z,11.59
2019-05-30T04:16:16.768Z,11.58
2019-05-30T04:18:45.473Z,11.54
2019-05-30T04:21:15.974Z,11.53
2019-05-30T04:23:44.021Z,11.54
2019-05-30T04:26:13.663Z,11.58
2019-05-30T04:28:42.245Z,11.60
2019-05-30T04:31:12.338Z,11.65
2019-05-30T04:33:40.983Z,11.70
2019-05-30T04:36:10.530Z,11.75
2019-05-30T04:38:39.181Z,11.76
2019-05-30T04:41:08.883Z,11.77
2019-05-30T04:43:37.483Z,11.77
2019-05-30T04:46:05.893Z,11.79
2019-05-30T04:48:34.423Z,11.81
2019-05-30T04:51:02.868Z,11.84
2019-05-30T04:53:31.306Z,11.88
2019-05-30T04:55:59.753Z,11.85
2019-05-30T04:58:28.161Z,11.81
2019-05-30T05:00:56.569Z,11.77
2019-05-30T05:03:44.152Z,11.76
2019-05-30T05:05:55.139Z,11.76
2019-05-30T05:08:23.568Z,11.81
2019-05-30T05:10:51.998Z,11.87
2019-05-30T05:13:20.497Z,11.92
2019-05-30T05:15:48.894Z,11.94
2019-05-30T05:18:18.931Z,11.96
2019-05-30T05:20:47.520Z,12.00
2019-05-30T05:23:17.151Z,12.03
2019-05-30T05:25:59.871Z,12.05
2019-05-30T05:28:15.861Z,12.09
2019-05-30T05:30:44.347Z,12.12
2019-05-30T05:33:12.888Z,12.12
2019-05-30T05:35:41.303Z,12.13
2019-05-30T05:38:09.688Z,12.15
2019-05-30T05:40:38.116Z,12.19
2019-05-30T05:43:06.516Z,12.21
2019-05-30T05:45:35.092Z,12.25
2019-05-30T05:48:03.587Z,12.27
2019-05-30T05:50:31.996Z,12.27
2019-05-30T05:53:00.396Z,12.30
2019-05-30T05:55:29.216Z,12.31
2019-05-30T05:57:57.689Z,12.33
2019-05-30T06:00:26.164Z,12.38
2019-05-30T06:02:54.783Z,12.41
2019-05-30T06:05:24.283Z,12.45
2019-05-30T06:07:52.843Z,12.50
2019-05-30T06:10:21.919Z,12.55
2019-05-30T06:12:50.288Z,12.59
2019-05-30T06:15:18.829Z,12.59
2019-05-30T06:17:47.419Z,12.55
2019-05-30T06:20:17.354Z,12.54
2019-05-30T06:22:45.907Z,12.59
2019-05-30T06:25:14.668Z,12.63
2019-05-30T06:27:43.074Z,12.69
2019-05-30T06:30:12.027Z,12.73
2019-05-30T06:32:40.458Z,12.71
2019-05-30T06:35:09.042Z,12.76
2019-05-30T06:37:37.442Z,12.77
2019-05-30T06:40:07.710Z,12.78
2019-05-30T06:42:36.877Z,12.77
2019-05-30T06:45:08.938Z,12.77
2019-05-30T06:47:37.474Z,12.76
2019-05-30T06:50:07.980Z,12.72
2019-05-30T06:52:36.388Z,12.70
2019-05-30T06:55:06.196Z,12.73
2019-05-30T06:57:34.586Z,12.77
2019-05-30T07:00:04.850Z,12.82
2019-05-30T07:02:33.291Z,12.87
2019-05-30T07:05:02.425Z,12.93
2019-05-30T07:07:34.064Z,12.94
2019-05-30T07:10:02.728Z,12.95
2019-05-30T07:12:31.259Z,12.95
2019-05-30T07:15:01.122Z,12.96
2019-05-30T07:17:29.648Z,12.95
2019-05-30T07:19:58.057Z,12.95
2019-05-30T07:22:27.638Z,12.98
2019-05-30T07:24:56.203Z,13.07
2019-05-30T07:27:25.848Z,13.17
2019-05-30T07:29:54.583Z,13.30
2019-05-30T07:32:24.082Z,13.39
2019-05-30T07:35:05.581Z,13.42
2019-05-30T07:37:24.382Z,13.45
2019-05-30T07:39:53.051Z,13.56
2019-05-30T07:42:21.616Z,13.71
2019-05-30T07:44:50.068Z,13.82
2019-05-30T07:47:18.549Z,13.88
2019-05-30T07:49:46.960Z,13.92
2019-05-30T07:52:15.359Z,13.98
2019-05-30T07:54:45.812Z,14.10
2019-05-30T07:57:14.236Z,14.21
2019-05-30T07:59:42.637Z,14.30
2019-05-30T08:02:11.050Z,14.43
2019-05-30T08:04:39.444Z,14.60
2019-05-30T08:07:07.842Z,14.72
2019-05-30T08:09:36.280Z,14.81
2019-05-30T08:12:04.847Z,14.86
2019-05-30T08:14:33.376Z,14.87
2019-05-30T08:17:01.959Z,14.90
2019-05-30T08:19:32.590Z,15.01
2019-05-30T08:22:00.548Z,15.20
2019-05-30T08:24:30.145Z,15.34
2019-05-30T08:26:58.600Z,15.44
2019-05-30T08:29:28.063Z,15.56
2019-05-30T08:31:56.800Z,15.78
2019-05-30T08:34:25.197Z,15.90
2019-05-30T08:36:53.608Z,16.04
2019-05-30T08:39:22.029Z,16.26
2019-05-30T08:41:52.809Z,16.43
2019-05-30T08:44:20.553Z,16.56
2019-05-30T08:46:49.027Z,16.60
2019-05-30T08:49:17.495Z,16.49
2019-05-30T08:51:45.896Z,16.40
2019-05-30T08:54:14.356Z,16.27
2019-05-30T08:56:44.342Z,16.22
2019-05-30T08:59:12.803Z,16.24
2019-05-30T09:01:42.149Z,16.29
2019-05-30T09:04:10.837Z,16.30
2019-05-30T09:06:39.953Z,16.36
2019-05-30T09:09:08.620Z,16.40
2019-05-30T09:11:37.680Z,16.35
2019-05-30T09:14:07.338Z,16.31
2019-05-30T09:16:35.818Z,16.31
2019-05-30T09:19:04.390Z,16.30
2019-05-30T09:21:32.854Z,16.22
2019-05-30T09:24:01.674Z,16.18
2019-05-30T09:26:30.278Z,16.15
2019-05-30T09:28:58.699Z,16.10
2019-05-30T09:31:27.124Z,16.06
2019-05-30T09:33:55.677Z,15.97
2019-05-30T09:36:24.049Z,15.89
2019-05-30T09:38:52.494Z,15.90
2019-05-30T09:41:22.332Z,16.01
2019-05-30T09:43:50.741Z,16.16
2019-05-30T09:46:19.226Z,16.36
2019-05-30T09:48:48.665Z,16.46
2019-05-30T09:51:17.210Z,16.46
2019-05-30T09:53:46.049Z,16.53
2019-05-30T09:56:14.543Z,16.65
2019-05-30T09:58:43.984Z,16.67
2019-05-30T10:01:12.574Z,16.60
2019-05-30T10:03:41.973Z,16.49
2019-05-30T10:06:11.136Z,16.43
2019-05-30T10:08:39.645Z,16.37
2019-05-30T10:11:08.037Z,16.32
2019-05-30T10:13:36.437Z,16.33
2019-05-30T10:16:05.124Z,16.29
2019-05-30T10:18:33.522Z,16.21
2019-05-30T10:21:01.935Z,16.14
2019-05-30T10:23:30.369Z,16.11
2019-05-30T10:25:58.761Z,16.08
2019-05-30T10:28:27.157Z,16.10
2019-05-30T10:30:58.910Z,16.14
2019-05-30T10:33:25.712Z,16.18
2019-05-30T10:35:54.114Z,16.18
2019-05-30T10:38:22.552Z,16.13
2019-05-30T10:40:52.186Z,16.06
2019-05-30T10:43:20.842Z,15.99
2019-05-30T10:45:49.631Z,15.92
2019-05-30T10:48:20.755Z,15.86
2019-05-30T10:50:48.563Z,15.91
2019-05-30T10:53:17.125Z,16.02
2019-05-30T10:55:46.602Z,16.11
2019-05-30T10:58:15.702Z,16.18
2019-05-30T11:00:57.609Z,16.20
2019-05-30T11:03:27.511Z,16.21
2019-05-30T11:05:58.951Z,16.19
2019-05-30T11:08:30.455Z,16.18
2019-05-30T11:10:58.851Z,16.20
2019-05-30T11:13:27.244Z,16.18
2019-05-30T11:15:55.679Z,16.23
2019-05-30T11:18:24.101Z,16.28
2019-05-30T11:20:52.481Z,16.38
2019-05-30T11:23:20.972Z,16.40
2019-05-30T11:25:50.474Z,16.42
2019-05-30T11:28:18.958Z,16.51
2019-05-30T11:30:48.621Z,16.57
2019-05-30T11:33:17.060Z,16.69
2019-05-30T11:35:45.446Z,16.87
2019-05-30T11:38:14.270Z,17.02
2019-05-30T11:40:42.671Z,17.08
2019-05-30T11:43:11.078Z,17.05
2019-05-30T11:45:39.949Z,17.05
2019-05-30T11:48:08.342Z,17.07
2019-05-30T11:50:36.752Z,17.12
2019-05-30T11:53:05.247Z,17.19
2019-05-30T11:55:33.637Z,17.17
2019-05-30T11:58:02.048Z,17.18
2019-05-30T12:00:31.103Z,17.22
2019-05-30T12:03:00.668Z,17.24
2019-05-30T12:05:29.443Z,17.26
2019-05-30T12:07:58.944Z,17.26
2019-05-30T12:10:27.840Z,17.22
2019-05-30T12:12:57.359Z,17.25
2019-05-30T12:15:26.404Z,17.26
2019-05-30T12:17:55.313Z,17.29
2019-05-30T12:20:24.010Z,17.51
2019-05-30T12:22:53.672Z,17.69
2019-05-30T12:25:22.359Z,17.82
2019-05-30T12:27:51.886Z,18.02
2019-05-30T12:30:21.309Z,18.25
2019-05-30T12:32:49.710Z,18.45
2019-05-30T12:35:18.253Z,18.65
2019-05-30T12:37:55.038Z,18.79
2019-05-30T12:40:17.963Z,18.91
2019-05-30T12:42:46.364Z,19.00
2019-05-30T12:45:15.620Z,19.06
2019-05-30T12:47:44.017Z,19.17
2019-05-30T12:50:16.697Z,19.27
2019-05-30T12:52:44.581Z,19.44
2019-05-30T12:55:14.100Z,19.50
2019-05-30T12:57:42.599Z,19.48
2019-05-30T13:00:20.028Z,19.58
2019-05-30T13:02:48.481Z,19.74
2019-05-30T13:05:17.934Z,19.85
2019-05-30T13:07:46.363Z,19.97
2019-05-30T13:10:15.006Z,20.18
2019-05-30T13:12:43.418Z,20.39
2019-05-30T13:15:12.182Z,20.45
2019-05-30T13:17:40.591Z,20.49
2019-05-30T13:20:10.942Z,20.59
2019-05-30T13:22:39.634Z,20.70
2019-05-30T13:25:11.089Z,20.74
2019-05-30T13:27:39.553Z,20.67
2019-05-30T13:30:09.924Z,20.49
2019-05-30T13:32:38.325Z,20.36
2019-05-30T13:35:07.775Z,20.32
2019-05-30T13:37:36.197Z,20.21
2019-05-30T13:40:23.608Z,20.15
2019-05-30T13:42:37.769Z,20.15
2019-05-30T13:45:08.349Z,20.30
2019-05-30T13:47:37.472Z,20.54
2019-05-30T13:50:13.407Z,20.67
2019-05-30T13:52:41.005Z,20.75
2019-05-30T13:55:10.363Z,20.71
2019-05-30T13:57:38.813Z,20.61
2019-05-30T14:00:08.950Z,20.57
2019-05-30T14:02:37.346Z,20.67
2019-05-30T14:05:08.335Z,20.82
2019-05-30T14:07:36.857Z,20.75
2019-05-30T14:10:08.882Z,20.62
2019-05-30T14:12:37.322Z,20.46
2019-05-30T14:15:10.589Z,20.49
2019-05-30T14:17:38.556Z,20.75
2019-05-30T14:20:09.090Z,21.01
2019-05-30T14:22:37.778Z,21.20
2019-05-30T14:25:07.658Z,21.33
2019-05-30T14:27:36.056Z,21.28
2019-05-30T14:30:06.826Z,21.15
2019-05-30T14:32:35.247Z,21.15
2019-05-30T14:35:06.406Z,21.12
2019-05-30T14:37:34.911Z,21.04
2019-05-30T14:40:04.984Z,21.07
2019-05-30T14:42:33.404Z,21.15
2019-05-30T14:45:01.819Z,21.30
2019-05-30T14:47:30.218Z,21.41
2019-05-30T14:49:58.621Z,21.49
2019-05-30T14:52:27.154Z,21.61
2019-05-30T14:54:56.363Z,21.67
2019-05-30T14:57:24.796Z,21.72
2019-05-30T14:59:53.341Z,21.80
2019-05-30T15:02:21.747Z,21.95
2019-05-30T15:04:50.151Z,21.99
2019-05-30T15:07:18.589Z,22.12
2019-05-30T15:09:46.982Z,22.17
2019-05-30T15:12:15.384Z,22.19
2019-05-30T15:14:44.097Z,22.20
2019-05-30T15:17:12.509Z,22.21
2019-05-30T15:19:40.908Z,22.19
2019-05-30T15:22:11.534Z,22.25
2019-05-30T15:24:39.466Z,22.28
2019-05-30T15:27:07.964Z,22.24
2019-05-30T15:29:36.493Z,22.22
2019-05-30T15:32:06.181Z,22.26
2019-05-30T15:34:35.093Z,22.17
2019-05-30T15:37:03.766Z,22.02
2019-05-30T15:39:33.149Z,21.97
2019-05-30T15:42:01.638Z,21.73
2019-05-30T15:44:30.054Z,21.59
2019-05-30T15:46:58.472Z,21.48
2019-05-30T15:49:26.857Z,21.30
2019-05-30T15:51:55.315Z,21.18
2019-05-30T15:54:23.735Z,21.12
2019-05-30T15:56:52.126Z,21.06
2019-05-30T15:59:20.557Z,20.99
2019-05-30T16:01:48.955Z,20.89
2019-05-30T16:04:18.256Z,20.78
2019-05-30T16:06:46.766Z,20.70
2019-05-30T16:09:15.163Z,20.63
2019-05-30T16:11:43.579Z,20.61
2019-05-30T16:14:13.158Z,20.58
2019-05-30T16:16:41.756Z,20.54
2019-05-30T16:19:18.376Z,20.53
2019-05-30T16:21:40.517Z,20.50
2019-05-30T16:24:08.919Z,20.48
2019-05-30T16:26:37.317Z,20.39
2019-05-30T16:29:05.759Z,20.32
2019-05-30T16:31:34.155Z,20.28
2019-05-30T16:34:02.554Z,20.26
2019-05-30T16:36:30.975Z,20.23
2019-05-30T16:38:59.369Z,20.17
2019-05-30T16:41:27.767Z,20.21
2019-05-30T16:43:58.650Z,20.45
2019-05-30T16:46:26.755Z,20.72
2019-05-30T16:48:55.213Z,20.95
2019-05-30T16:51:23.693Z,21.07
2019-05-30T16:53:52.041Z,21.23
2019-05-30T16:56:21.491Z,21.41
2019-05-30T16:58:49.971Z,21.47
2019-05-30T17:01:19.741Z,21.51
2019-05-30T17:03:48.252Z,21.53
2019-05-30T17:06:17.945Z,21.47
2019-05-30T17:08:46.561Z,21.34
2019-05-30T17:11:15.336Z,21.22
2019-05-30T17:13:43.857Z,21.00
2019-05-30T17:16:12.297Z,20.84
2019-05-30T17:18:40.690Z,20.91
2019-05-30T17:21:09.144Z,21.07
2019-05-30T17:23:37.559Z,21.31
2019-05-30T17:26:06.181Z,21.40
2019-05-30T17:28:34.615Z,21.28
2019-05-30T17:31:03.043Z,21.17
2019-05-30T17:33:31.445Z,21.41
2019-05-30T17:35:59.885Z,21.33
2019-05-30T17:38:28.753Z,21.30
2019-05-30T17:40:57.181Z,21.16
2019-05-30T17:43:25.986Z,20.91
2019-05-30T17:45:55.491Z,20.59
2019-05-30T17:48:23.893Z,20.34
2019-05-30T17:50:52.379Z,20.13
2019-05-30T17:53:21.678Z,19.94
2019-05-30T17:55:50.153Z,19.74
2019-05-30T17:58:20.461Z,19.58
2019-05-30T18:00:48.910Z,19.46
2019-05-30T18:03:17.307Z,19.32
2019-05-30T18:05:45.771Z,19.19
2019-05-30T18:08:14.172Z,19.03
2019-05-30T18:10:53.354Z,18.91
2019-05-30T18:13:12.912Z,18.78
2019-05-30T18:15:41.315Z,18.67
2019-05-30T18:18:09.722Z,18.58
2019-05-30T18:20:48.552Z,18.50
2019-05-30T18:23:08.664Z,18.41
2019-05-30T18:25:37.041Z,18.30
2019-05-30T18:28:05.729Z,18.19
2019-05-30T18:30:42.122Z,18.06
2019-05-30T18:33:11.199Z,18.00
2019-05-30T18:35:39.597Z,17.90
2019-05-30T18:38:08.196Z,17.79
2019-05-30T18:40:37.950Z,17.70
2019-05-30T18:43:06.589Z,17.64
2019-05-30T18:45:39.701Z,17.60
2019-05-30T18:48:09.009Z,17.56
2019-05-30T18:50:37.412Z,17.49
2019-05-30T18:53:06.868Z,17.44
2019-05-30T18:55:35.541Z,17.36
2019-05-30T18:58:07.277Z,17.24
2019-05-30T19:00:34.565Z,17.17
2019-05-30T19:03:02.980Z,17.09
2019-05-30T19:05:32.634Z,17.01
2019-05-30T19:08:01.186Z,16.92
2019-05-30T19:10:30.048Z,16.81
2019-05-30T19:12:58.432Z,16.74
2019-05-30T19:15:30.005Z,16.66
2019-05-30T19:17:58.831Z,16.58
2019-05-30T19:20:27.695Z,16.53
2019-05-30T19:22:56.177Z,16.47
2019-05-30T19:25:24.683Z,16.46
2019-05-30T19:27:53.083Z,16.40
2019-05-30T19:30:22.027Z,16.32
2019-05-30T19:32:50.609Z,16.26
2019-05-30T19:35:19.149Z,16.19
2019-05-30T19:37:47.545Z,16.14
2019-05-30T19:40:16.620Z,16.07
2019-05-30T19:42:45.021Z,16.03
2019-05-30T19:45:15.831Z,16.00
2019-05-30T19:47:44.259Z,15.96
2019-05-30T19:50:14.366Z,15.91
2019-05-30T19:52:42.773Z,15.88
2019-05-30T19:55:11.540Z,15.82
2019-05-30T19:57:40.042Z,15.76
2019-05-30T20:00:10.131Z,15.71
2019-05-30T20:02:38.696Z,15.68
2019-05-30T20:05:08.526Z,15.63
2019-05-30T20:07:37.078Z,15.60
2019-05-30T20:10:10.518Z,15.53
2019-05-30T20:12:39.109Z,15.48
2019-05-30T20:15:09.706Z,15.47
2019-05-30T20:17:38.169Z,15.45
2019-05-30T20:20:07.024Z,15.40
2019-05-30T20:22:35.981Z,15.35
2019-05-30T20:25:06.626Z,15.32
2019-05-30T20:27:35.033Z,15.25
2019-05-30T20:30:05.375Z,15.19
2019-05-30T20:32:34.406Z,15.14
2019-05-30T20:35:03.174Z,15.12
2019-05-30T20:37:31.574Z,15.08
2019-05-30T20:40:00.175Z,15.06
2019-05-30T20:42:28.576Z,15.07
2019-05-30T20:44:56.974Z,15.04
2019-05-30T20:47:25.618Z,15.00
2019-05-30T20:49:54.027Z,14.99
2019-05-30T20:52:22.429Z,14.93
2019-05-30T20:54:50.862Z,14.89
2019-05-30T20:57:19.406Z,14.86
2019-05-30T20:59:47.808Z,14.83
2019-05-30T21:02:16.400Z,14.81
2019-05-30T21:04:44.808Z,14.78
2019-05-30T21:07:13.439Z,14.72
2019-05-30T21:09:42.248Z,14.66
2019-05-30T21:12:14.013Z,14.64
2019-05-30T21:14:45.808Z,14.61
2019-05-30T21:17:16.718Z,14.59
2019-05-30T21:19:46.090Z,14.57
2019-05-30T21:22:14.602Z,14.57
2019-05-30T21:24:43.094Z,14.57
2019-05-30T21:27:11.495Z,14.54
2019-05-30T21:29:41.034Z,14.50
2019-05-30T21:32:09.535Z,14.44
2019-05-30T21:34:38.129Z,14.40
2019-05-30T21:37:07.102Z,14.35
2019-05-30T21:39:35.529Z,14.32
2019-05-30T21:42:03.994Z,14.31
2019-05-30T21:44:32.398Z,14.27
2019-05-30T21:47:00.827Z,14.25
2019-05-30T21:49:29.230Z,14.23
2019-05-30T21:51:57.629Z,14.17
2019-05-30T21:54:26.061Z,14.14
2019-05-30T21:56:54.458Z,14.12
2019-05-30T21:59:22.864Z,14.09
2019-05-30T22:01:56.922Z,14.09
2019-05-30T22:04:21.446Z,14.07
2019-05-30T22:06:50.968Z,14.03
2019-05-30T22:09:19.721Z,14.02
2019-05-30T22:11:48.122Z,14.00
2019-05-30T22:14:16.590Z,13.96
2019-05-30T22:16:45.951Z,13.97
2019-05-30T22:19:14.439Z,13.95
2019-05-30T22:21:44.074Z,13.93
2019-05-30T22:24:12.753Z,13.89
2019-05-30T22:26:42.352Z,13.84
2019-05-30T22:29:10.940Z,13.84
2019-05-30T22:31:39.370Z,13.82
2019-05-30T22:34:09.414Z,13.80
2019-05-30T22:36:37.816Z,13.77
2019-05-30T22:39:08.906Z,13.72
2019-05-30T22:41:37.391Z,13.71
2019-05-30T22:44:05.882Z,13.69
2019-05-30T22:46:34.340Z,13.69
2019-05-30T22:49:02.738Z,13.70
2019-05-30T22:51:31.136Z,13.72
2019-05-30T22:53:59.557Z,13.73
2019-05-30T22:56:27.980Z,13.73
2019-05-30T22:58:56.374Z,13.71
2019-05-30T23:01:24.808Z,13.71
2019-05-30T23:03:53.975Z,13.70
2019-05-30T23:06:22.499Z,13.69
2019-05-30T23:08:50.934Z,13.65
2019-05-30T23:11:19.378Z,13.64
2019-05-30T23:13:47.949Z,13.59
2019-05-30T23:16:16.474Z,13.57
2019-05-30T23:18:44.904Z,13.55
2019-05-30T23:21:16.373Z,13.53
2019-05-30T23:23:44.872Z,13.51
2019-05-30T23:26:13.272Z,13.45
2019-05-30T23:28:41.669Z,13.46
2019-05-30T23:31:10.310Z,13.44
2019-05-30T23:33:38.712Z,13.41
2019-05-30T23:36:07.111Z,13.38
2019-05-30T23:38:35.717Z,13.38
2019-05-30T23:41:04.070Z,13.38
2019-05-30T23:43:32.473Z,13.36
2019-05-30T23:46:00.922Z,13.33
2019-05-30T23:48:29.310Z,13.30
2019-05-30T23:50:57.951Z,13.29
2019-05-30T23:53:26.409Z,13.27
2019-05-30T23:55:54.832Z,13.22
2019-05-30T23:58:23.230Z,13.21
